Terminal Aerodrome Forecast
Issued by NWS

Home | Current Version | Previous Version | Text Only | Print | Product List | Glossary On
Versions: 1 2 3 4 5 6 7 8 9 10 11 12 13
328
FTUS43 KMQT 180533
TAFIWD
TAF
KIWD 180533Z 1806/1906 22007KT 5SM BR FEW250
     FM181000 22009KT P6SM FEW250 WS010/25035KT
     FM181700 22011G19KT P6SM FEW250
     FM182100 22009KT P6SM FEW250=

USA.gov is the U.S. government's official web portal to all federal, state and local government web resources and services.